SBCJ/CKS METAR and TAF weather

Enter ICAO airport designator
Station Type Date Time Source
SBCJ METAR 2019/02/16 00:00 UTC NOAA

SBCJ 160000Z 00000KT CAVOK 23/21 Q1015


Station Type Date Time Source
SBCJ Decoded METAR 2019/02/16 00:00 UTC NOAA

Carajas / Maraba, Brazil (SBCJ) 06-07S 050-00W
Feb 15, 2019 - 07:00 PM EST / 2019.02.16 0000 UTC
Wind: Calm:0
Visibility: greater than 7 mile(s):0
Temperature: 73 F (23 C)
Dew Point: 69 F (21 C)
Relative Humidity: 88%
Pressure (altimeter): 29.97 in. Hg (1015 hPa)
ob: SBCJ 160000Z 00000KT CAVOK 23/21 Q1015
cycle: 0

Station Type Date Time Source
SBCJ TAF 2019/02/16 06:33 UTC NOAA

TAF SBCJ 160400Z 1606/1618 11005KT 3000 BR BKN005 TN21/1607Z TX28/1617Z
BECMG 1611/1613 8000 BKN011
FM161400 08005KT 8000 SCT018
BECMG 1616/1618 SCT023
RMK PAZ


Example: see airport list